sensor_id;sensor_type;location;lat;lon;timestamp;temperature;humidity
25512;DHT22;13414;44.534;18.700;2023-04-10T00:00:05;8.20;99.90
25512;DHT22;13414;44.534;18.700;2023-04-10T00:02:33;8.10;99.90
25512;DHT22;13414;44.534;18.700;2023-04-10T00:05:01;8.10;99.90
25512;DHT22;13414;44.534;18.700;2023-04-10T00:07:29;8.00;99.90
25512;DHT22;13414;44.534;18.700;2023-04-10T00:09:56;8.00;99.90
25512;DHT22;13414;44.534;18.700;2023-04-10T00:12:23;7.90;99.90
25512;DHT22;13414;44.534;18.700;2023-04-10T00:14:51;7.80;99.90
25512;DHT22;13414;44.534;18.700;2023-04-10T00:17:20;7.80;99.90
25512;DHT22;13414;44.534;18.700;2023-04-10T00:19:47;7.80;99.90
25512;DHT22;13414;44.534;18.700;2023-04-10T00:22:15;7.90;99.90
25512;DHT22;13414;44.534;18.700;2023-04-10T00:24:42;7.90;99.90
25512;DHT22;13414;44.534;18.700;2023-04-10T00:27:09;8.00;99.90
25512;DHT22;13414;44.534;18.700;2023-04-10T00:29:37;8.00;99.90
25512;DHT22;13414;44.534;18.700;2023-04-10T00:32:05;8.10;99.90
25512;DHT22;13414;44.534;18.700;2023-04-10T00:34:34;8.10;99.90
25512;DHT22;13414;44.534;18.700;2023-04-10T00:37:01;8.20;99.90
25512;DHT22;13414;44.534;18.700;2023-04-10T00:39:29;8.10;99.90
25512;DHT22;13414;44.534;18.700;2023-04-10T00:41:56;8.20;99.90
25512;DHT22;13414;44.534;18.700;2023-04-10T00:44:24;8.20;99.90
25512;DHT22;13414;44.534;18.700;2023-04-10T00:46:52;8.20;99.90
25512;DHT22;13414;44.534;18.700;2023-04-10T00:49:19;8.20;99.90
25512;DHT22;13414;44.534;18.700;2023-04-10T00:51:48;8.20;99.90
25512;DHT22;13414;44.534;18.700;2023-04-10T00:54:16;8.30;99.90
25512;DHT22;13414;44.534;18.700;2023-04-10T00:56:44;8.20;99.90
25512;DHT22;13414;44.534;18.700;2023-04-10T00:59:12;8.30;99.90
25512;DHT22;13414;44.534;18.700;2023-04-10T01:01:39;8.30;99.90
25512;DHT22;13414;44.534;18.700;2023-04-10T01:04:07;8.20;99.90
25512;DHT22;13414;44.534;18.700;2023-04-10T01:06:45;8.20;99.90
25512;DHT22;13414;44.534;18.700;2023-04-10T01:09:27;8.20;99.90
25512;DHT22;13414;44.534;18.700;2023-04-10T01:12:01;8.20;99.90
25512;DHT22;13414;44.534;18.700;2023-04-10T01:14:37;8.30;99.90
25512;DHT22;13414;44.534;18.700;2023-04-10T01:17:12;8.30;99.90
25512;DHT22;13414;44.534;18.700;2023-04-10T01:20:00;8.30;99.90
25512;DHT22;13414;44.534;18.700;2023-04-10T01:22:37;8.30;99.90
25512;DHT22;13414;44.534;18.700;2023-04-10T01:25:27;8.20;99.90
25512;DHT22;13414;44.534;18.700;2023-04-10T01:28:06;8.10;99.90
25512;DHT22;13414;44.534;18.700;2023-04-10T01:30:39;8.00;99.90
25512;DHT22;13414;44.534;18.700;2023-04-10T01:33:11;8.00;99.90
25512;DHT22;13414;44.534;18.700;2023-04-10T01:35:42;7.90;99.90
25512;DHT22;13414;44.534;18.700;2023-04-10T01:38:10;7.80;99.90
25512;DHT22;13414;44.534;18.700;2023-04-10T01:40:39;7.80;99.90
25512;DHT22;13414;44.534;18.700;2023-04-10T01:43:17;7.70;99.90
25512;DHT22;13414;44.534;18.700;2023-04-10T01:45:51;7.70;99.90
25512;DHT22;13414;44.534;18.700;2023-04-10T01:48:19;7.70;99.90
25512;DHT22;13414;44.534;18.700;2023-04-10T01:50:47;7.70;99.90
25512;DHT22;13414;44.534;18.700;2023-04-10T01:53:15;7.60;99.90
25512;DHT22;13414;44.534;18.700;2023-04-10T01:55:43;7.60;99.90
25512;DHT22;13414;44.534;18.700;2023-04-10T01:58:12;7.60;99.90
25512;DHT22;13414;44.534;18.700;2023-04-10T02:00:41;7.60;99.90
25512;DHT22;13414;44.534;18.700;2023-04-10T02:03:12;7.60;99.90
25512;DHT22;13414;44.534;18.700;2023-04-10T02:05:47;7.60;99.90
25512;DHT22;13414;44.534;18.700;2023-04-10T02:08:21;7.70;99.90
25512;DHT22;13414;44.534;18.700;2023-04-10T02:10:55;7.60;99.90
25512;DHT22;13414;44.534;18.700;2023-04-10T02:13:26;7.70;99.90
25512;DHT22;13414;44.534;18.700;2023-04-10T02:15:55;7.70;99.90
25512;DHT22;13414;44.534;18.700;2023-04-10T02:18:25;7.70;99.90
25512;DHT22;13414;44.534;18.700;2023-04-10T02:20:53;7.80;99.90
25512;DHT22;13414;44.534;18.700;2023-04-10T02:23:21;7.90;99.90
25512;DHT22;13414;44.534;18.700;2023-04-10T02:25:49;7.90;99.90
25512;DHT22;13414;44.534;18.700;2023-04-10T02:28:16;7.90;99.90
25512;DHT22;13414;44.534;18.700;2023-04-10T02:30:44;8.00;99.90
25512;DHT22;13414;44.534;18.700;2023-04-10T02:33:12;8.00;99.90
25512;DHT22;13414;44.534;18.700;2023-04-10T02:35:41;8.00;99.90
25512;DHT22;13414;44.534;18.700;2023-04-10T02:38:08;8.00;99.90
25512;DHT22;13414;44.534;18.700;2023-04-10T02:40:37;8.00;99.90
25512;DHT22;13414;44.534;18.700;2023-04-10T02:43:15;8.00;99.90
25512;DHT22;13414;44.534;18.700;2023-04-10T02:45:45;7.90;99.90
25512;DHT22;13414;44.534;18.700;2023-04-10T02:48:19;7.90;99.90
25512;DHT22;13414;44.534;18.700;2023-04-10T02:50:56;7.90;99.90
25512;DHT22;13414;44.534;18.700;2023-04-10T02:53:24;7.90;99.90
25512;DHT22;13414;44.534;18.700;2023-04-10T02:55:56;7.90;99.90
25512;DHT22;13414;44.534;18.700;2023-04-10T02:58:23;7.90;99.90
25512;DHT22;13414;44.534;18.700;2023-04-10T03:00:54;7.90;99.90
25512;DHT22;13414;44.534;18.700;2023-04-10T03:03:38;8.00;99.90
25512;DHT22;13414;44.534;18.700;2023-04-10T03:06:08;7.90;99.90
25512;DHT22;13414;44.534;18.700;2023-04-10T03:08:37;7.90;99.90
25512;DHT22;13414;44.534;18.700;2023-04-10T03:11:06;7.90;99.90
25512;DHT22;13414;44.534;18.700;2023-04-10T03:13:34;7.90;99.90
25512;DHT22;13414;44.534;18.700;2023-04-10T03:16:01;7.80;99.90
25512;DHT22;13414;44.534;18.700;2023-04-10T03:18:29;7.80;99.90
25512;DHT22;13414;44.534;18.700;2023-04-10T03:20:59;7.80;99.90
25512;DHT22;13414;44.534;18.700;2023-04-10T03:23:29;7.80;99.90
25512;DHT22;13414;44.534;18.700;2023-04-10T03:25:56;7.80;99.90
25512;DHT22;13414;44.534;18.700;2023-04-10T03:28:27;7.90;99.90
25512;DHT22;13414;44.534;18.700;2023-04-10T03:30:55;7.90;99.90
25512;DHT22;13414;44.534;18.700;2023-04-10T03:33:22;8.00;99.90
25512;DHT22;13414;44.534;18.700;2023-04-10T03:35:50;8.00;99.90
25512;DHT22;13414;44.534;18.700;2023-04-10T03:38:18;8.00;99.90
25512;DHT22;13414;44.534;18.700;2023-04-10T03:40:47;8.00;99.90
25512;DHT22;13414;44.534;18.700;2023-04-10T03:43:17;8.00;99.90
25512;DHT22;13414;44.534;18.700;2023-04-10T03:45:45;8.00;99.90
25512;DHT22;13414;44.534;18.700;2023-04-10T03:48:14;8.10;99.90
25512;DHT22;13414;44.534;18.700;2023-04-10T03:50:45;8.10;99.90
25512;DHT22;13414;44.534;18.700;2023-04-10T03:53:13;8.10;99.90
25512;DHT22;13414;44.534;18.700;2023-04-10T03:55:40;8.10;99.90
25512;DHT22;13414;44.534;18.700;2023-04-10T03:58:10;8.10;99.90
25512;DHT22;13414;44.534;18.700;2023-04-10T04:00:38;8.10;99.90
25512;DHT22;13414;44.534;18.700;2023-04-10T04:03:17;8.10;99.90
25512;DHT22;13414;44.534;18.700;2023-04-10T04:06:13;8.10;99.90
25512;DHT22;13414;44.534;18.700;2023-04-10T04:09:13;8.00;99.90
25512;DHT22;13414;44.534;18.700;2023-04-10T04:12:07;7.90;99.90
25512;DHT22;13414;44.534;18.700;2023-04-10T04:14:47;7.90;99.90
25512;DHT22;13414;44.534;18.700;2023-04-10T04:17:41;7.90;99.90
25512;DHT22;13414;44.534;18.700;2023-04-10T04:20:34;7.90;99.90
25512;DHT22;13414;44.534;18.700;2023-04-10T04:23:28;7.90;99.90
25512;DHT22;13414;44.534;18.700;2023-04-10T04:26:18;7.90;99.90
25512;DHT22;13414;44.534;18.700;2023-04-10T04:29:08;7.80;99.90
25512;DHT22;13414;44.534;18.700;2023-04-10T04:32:00;7.90;99.90
25512;DHT22;13414;44.534;18.700;2023-04-10T04:34:37;7.90;99.90
25512;DHT22;13414;44.534;18.700;2023-04-10T04:37:31;7.80;99.90
25512;DHT22;13414;44.534;18.700;2023-04-10T04:40:19;7.80;99.90
25512;DHT22;13414;44.534;18.700;2023-04-10T04:43:05;7.80;99.90
25512;DHT22;13414;44.534;18.700;2023-04-10T04:45:51;7.80;99.90
25512;DHT22;13414;44.534;18.700;2023-04-10T04:48:51;7.70;99.90
25512;DHT22;13414;44.534;18.700;2023-04-10T04:51:46;7.70;99.90
25512;DHT22;13414;44.534;18.700;2023-04-10T04:54:29;7.60;99.90
25512;DHT22;13414;44.534;18.700;2023-04-10T04:57:12;7.60;99.90
25512;DHT22;13414;44.534;18.700;2023-04-10T04:59:56;7.60;99.90
25512;DHT22;13414;44.534;18.700;2023-04-10T05:02:42;7.60;99.90
25512;DHT22;13414;44.534;18.700;2023-04-10T05:05:29;7.60;99.90
25512;DHT22;13414;44.534;18.700;2023-04-10T05:08:04;7.70;99.90
25512;DHT22;13414;44.534;18.700;2023-04-10T05:10:50;7.70;99.90
25512;DHT22;13414;44.534;18.700;2023-04-10T05:13:53;7.70;99.90
25512;DHT22;13414;44.534;18.700;2023-04-10T05:16:41;7.60;99.90
25512;DHT22;13414;44.534;18.700;2023-04-10T05:19:32;7.60;99.90
25512;DHT22;13414;44.534;18.700;2023-04-10T05:22:21;7.60;99.90
25512;DHT22;13414;44.534;18.700;2023-04-10T05:25:18;7.60;99.90
25512;DHT22;13414;44.534;18.700;2023-04-10T05:28:00;7.50;99.90
25512;DHT22;13414;44.534;18.700;2023-04-10T05:30:47;7.50;99.90
25512;DHT22;13414;44.534;18.700;2023-04-10T05:33:32;7.50;99.90
25512;DHT22;13414;44.534;18.700;2023-04-10T05:36:12;7.50;99.90
25512;DHT22;13414;44.534;18.700;2023-04-10T05:39:00;7.50;99.90
25512;DHT22;13414;44.534;18.700;2023-04-10T05:41:56;7.50;99.90
25512;DHT22;13414;44.534;18.700;2023-04-10T05:44:44;7.50;99.90
25512;DHT22;13414;44.534;18.700;2023-04-10T05:47:34;7.40;99.90
25512;DHT22;13414;44.534;18.700;2023-04-10T05:50:19;7.40;99.90
25512;DHT22;13414;44.534;18.700;2023-04-10T05:52:58;7.30;99.90
25512;DHT22;13414;44.534;18.700;2023-04-10T05:55:48;7.20;99.90
25512;DHT22;13414;44.534;18.700;2023-04-10T05:58:42;7.20;99.90
25512;DHT22;13414;44.534;18.700;2023-04-10T06:01:15;7.20;99.90
25512;DHT22;13414;44.534;18.700;2023-04-10T06:03:48;7.20;99.90
25512;DHT22;13414;44.534;18.700;2023-04-10T06:06:16;7.20;99.90
25512;DHT22;13414;44.534;18.700;2023-04-10T06:08:44;7.20;99.90
25512;DHT22;13414;44.534;18.700;2023-04-10T06:11:13;7.20;99.90
25512;DHT22;13414;44.534;18.700;2023-04-10T06:13:44;7.30;99.90
25512;DHT22;13414;44.534;18.700;2023-04-10T06:16:13;7.30;99.90
25512;DHT22;13414;44.534;18.700;2023-04-10T06:18:42;7.40;99.90
25512;DHT22;13414;44.534;18.700;2023-04-10T06:21:11;7.50;99.90
25512;DHT22;13414;44.534;18.700;2023-04-10T06:23:39;7.50;99.90
25512;DHT22;13414;44.534;18.700;2023-04-10T06:26:07;7.50;99.90
25512;DHT22;13414;44.534;18.700;2023-04-10T06:28:36;7.50;99.90
25512;DHT22;13414;44.534;18.700;2023-04-10T06:31:05;7.50;99.90
25512;DHT22;13414;44.534;18.700;2023-04-10T06:33:36;7.60;99.90
25512;DHT22;13414;44.534;18.700;2023-04-10T06:36:07;7.70;99.90
25512;DHT22;13414;44.534;18.700;2023-04-10T06:38:41;7.80;99.90
25512;DHT22;13414;44.534;18.700;2023-04-10T06:41:08;7.80;99.90
25512;DHT22;13414;44.534;18.700;2023-04-10T06:43:38;7.80;99.90
25512;DHT22;13414;44.534;18.700;2023-04-10T06:46:06;7.90;99.90
25512;DHT22;13414;44.534;18.700;2023-04-10T06:48:33;7.90;99.90
25512;DHT22;13414;44.534;18.700;2023-04-10T06:51:01;7.90;99.90
25512;DHT22;13414;44.534;18.700;2023-04-10T06:53:29;7.90;99.90
25512;DHT22;13414;44.534;18.700;2023-04-10T06:55:57;8.00;99.90
25512;DHT22;13414;44.534;18.700;2023-04-10T06:58:25;8.00;99.90
25512;DHT22;13414;44.534;18.700;2023-04-10T07:00:53;8.10;99.90
25512;DHT22;13414;44.534;18.700;2023-04-10T07:03:21;8.20;99.90
25512;DHT22;13414;44.534;18.700;2023-04-10T07:05:48;8.50;99.90
25512;DHT22;13414;44.534;18.700;2023-04-10T07:08:16;8.70;99.90
25512;DHT22;13414;44.534;18.700;2023-04-10T07:10:43;8.80;99.90
25512;DHT22;13414;44.534;18.700;2023-04-10T07:13:11;8.80;99.90
25512;DHT22;13414;44.534;18.700;2023-04-10T07:15:38;8.90;99.90
25512;DHT22;13414;44.534;18.700;2023-04-10T07:18:07;9.10;99.90
25512;DHT22;13414;44.534;18.700;2023-04-10T07:20:35;9.20;99.90
25512;DHT22;13414;44.534;18.700;2023-04-10T07:23:03;9.10;99.90
25512;DHT22;13414;44.534;18.700;2023-04-10T07:25:30;9.10;99.90
25512;DHT22;13414;44.534;18.700;2023-04-10T07:27:58;9.10;99.90
25512;DHT22;13414;44.534;18.700;2023-04-10T07:30:25;9.00;99.90
25512;DHT22;13414;44.534;18.700;2023-04-10T07:32:52;9.00;99.90
25512;DHT22;13414;44.534;18.700;2023-04-10T07:35:21;9.00;99.90
25512;DHT22;13414;44.534;18.700;2023-04-10T07:37:49;9.20;99.90
25512;DHT22;13414;44.534;18.700;2023-04-10T07:40:17;9.20;99.90
25512;DHT22;13414;44.534;18.700;2023-04-10T07:42:45;9.20;99.90
25512;DHT22;13414;44.534;18.700;2023-04-10T07:45:13;9.20;99.90
25512;DHT22;13414;44.534;18.700;2023-04-10T07:47:40;9.10;99.90
25512;DHT22;13414;44.534;18.700;2023-04-10T07:50:08;9.00;99.90
25512;DHT22;13414;44.534;18.700;2023-04-10T07:52:37;8.80;99.90
25512;DHT22;13414;44.534;18.700;2023-04-10T07:55:05;8.80;99.90
25512;DHT22;13414;44.534;18.700;2023-04-10T07:57:32;9.00;99.90
25512;DHT22;13414;44.534;18.700;2023-04-10T08:00:00;9.10;99.90
25512;DHT22;13414;44.534;18.700;2023-04-10T08:02:38;9.10;99.90
25512;DHT22;13414;44.534;18.700;2023-04-10T08:05:07;9.20;99.90
25512;DHT22;13414;44.534;18.700;2023-04-10T08:07:37;9.20;99.90
25512;DHT22;13414;44.534;18.700;2023-04-10T08:10:05;9.20;99.90
25512;DHT22;13414;44.534;18.700;2023-04-10T08:12:32;9.20;99.90
25512;DHT22;13414;44.534;18.700;2023-04-10T08:15:00;9.10;99.90
25512;DHT22;13414;44.534;18.700;2023-04-10T08:17:35;9.10;99.90
25512;DHT22;13414;44.534;18.700;2023-04-10T08:20:03;9.00;99.90
25512;DHT22;13414;44.534;18.700;2023-04-10T08:22:31;9.10;99.90
25512;DHT22;13414;44.534;18.700;2023-04-10T08:25:00;9.10;99.90
25512;DHT22;13414;44.534;18.700;2023-04-10T08:27:27;9.10;99.90
25512;DHT22;13414;44.534;18.700;2023-04-10T08:29:55;9.10;99.90
25512;DHT22;13414;44.534;18.700;2023-04-10T08:32:24;9.10;99.90
25512;DHT22;13414;44.534;18.700;2023-04-10T08:34:52;9.20;99.90
25512;DHT22;13414;44.534;18.700;2023-04-10T08:37:20;9.30;99.90
25512;DHT22;13414;44.534;18.700;2023-04-10T08:39:47;9.40;99.90
25512;DHT22;13414;44.534;18.700;2023-04-10T08:42:16;9.50;99.90
25512;DHT22;13414;44.534;18.700;2023-04-10T08:44:44;9.60;99.90
25512;DHT22;13414;44.534;18.700;2023-04-10T08:47:12;9.90;99.90
25512;DHT22;13414;44.534;18.700;2023-04-10T08:49:47;10.00;99.90
25512;DHT22;13414;44.534;18.700;2023-04-10T08:52:20;10.10;99.90
25512;DHT22;13414;44.534;18.700;2023-04-10T08:54:52;10.10;99.90
25512;DHT22;13414;44.534;18.700;2023-04-10T08:57:22;9.70;99.90
25512;DHT22;13414;44.534;18.700;2023-04-10T08:59:50;9.50;99.90
25512;DHT22;13414;44.534;18.700;2023-04-10T09:02:18;9.70;99.90
25512;DHT22;13414;44.534;18.700;2023-04-10T09:04:47;9.90;99.90
25512;DHT22;13414;44.534;18.700;2023-04-10T09:07:15;10.10;99.90
25512;DHT22;13414;44.534;18.700;2023-04-10T09:09:43;10.30;99.90
25512;DHT22;13414;44.534;18.700;2023-04-10T09:12:12;10.50;99.90
25512;DHT22;13414;44.534;18.700;2023-04-10T09:14:42;10.50;99.90
25512;DHT22;13414;44.534;18.700;2023-04-10T09:17:14;10.50;99.90
25512;DHT22;13414;44.534;18.700;2023-04-10T09:19:43;10.40;99.90
25512;DHT22;13414;44.534;18.700;2023-04-10T09:22:11;10.40;99.90
25512;DHT22;13414;44.534;18.700;2023-04-10T09:24:40;10.40;99.90
25512;DHT22;13414;44.534;18.700;2023-04-10T09:27:08;10.50;99.90
25512;DHT22;13414;44.534;18.700;2023-04-10T09:29:43;10.60;99.90
25512;DHT22;13414;44.534;18.700;2023-04-10T09:32:25;10.80;99.90
25512;DHT22;13414;44.534;18.700;2023-04-10T09:35:01;10.70;99.90
25512;DHT22;13414;44.534;18.700;2023-04-10T09:37:31;10.70;99.90
25512;DHT22;13414;44.534;18.700;2023-04-10T09:39:58;10.80;99.90
25512;DHT22;13414;44.534;18.700;2023-04-10T09:42:30;11.00;99.90
25512;DHT22;13414;44.534;18.700;2023-04-10T09:45:00;11.00;99.90
25512;DHT22;13414;44.534;18.700;2023-04-10T09:47:27;10.90;99.90
25512;DHT22;13414;44.534;18.700;2023-04-10T09:49:57;10.70;99.90
25512;DHT22;13414;44.534;18.700;2023-04-10T09:52:26;10.80;99.90
25512;DHT22;13414;44.534;18.700;2023-04-10T09:54:55;10.80;99.90
25512;DHT22;13414;44.534;18.700;2023-04-10T09:57:24;10.60;99.90
25512;DHT22;13414;44.534;18.700;2023-04-10T09:59:53;10.60;99.90
25512;DHT22;13414;44.534;18.700;2023-04-10T10:02:24;10.60;99.90
25512;DHT22;13414;44.534;18.700;2023-04-10T10:04:52;10.30;99.90
25512;DHT22;13414;44.534;18.700;2023-04-10T10:07:21;10.30;99.90
25512;DHT22;13414;44.534;18.700;2023-04-10T10:09:50;10.30;99.90
25512;DHT22;13414;44.534;18.700;2023-04-10T10:12:21;10.20;99.90
25512;DHT22;13414;44.534;18.700;2023-04-10T10:14:53;10.00;99.90
25512;DHT22;13414;44.534;18.700;2023-04-10T10:17:28;9.90;99.90
25512;DHT22;13414;44.534;18.700;2023-04-10T10:20:01;9.80;99.90
25512;DHT22;13414;44.534;18.700;2023-04-10T10:22:31;9.80;99.90
25512;DHT22;13414;44.534;18.700;2023-04-10T10:24:59;9.90;99.90
25512;DHT22;13414;44.534;18.700;2023-04-10T10:27:30;9.80;99.90
25512;DHT22;13414;44.534;18.700;2023-04-10T10:29:59;9.70;99.90
25512;DHT22;13414;44.534;18.700;2023-04-10T10:32:29;9.80;99.90
25512;DHT22;13414;44.534;18.700;2023-04-10T10:34:56;9.80;99.90
25512;DHT22;13414;44.534;18.700;2023-04-10T10:37:25;9.70;99.90
25512;DHT22;13414;44.534;18.700;2023-04-10T10:39:58;9.70;99.90
25512;DHT22;13414;44.534;18.700;2023-04-10T10:42:35;9.80;99.90
25512;DHT22;13414;44.534;18.700;2023-04-10T10:45:09;9.90;99.90
25512;DHT22;13414;44.534;18.700;2023-04-10T10:47:44;9.80;99.90
25512;DHT22;13414;44.534;18.700;2023-04-10T10:50:13;9.80;99.90
25512;DHT22;13414;44.534;18.700;2023-04-10T10:52:45;9.80;99.90
25512;DHT22;13414;44.534;18.700;2023-04-10T10:55:32;9.80;99.90
25512;DHT22;13414;44.534;18.700;2023-04-10T10:58:05;9.90;99.90
25512;DHT22;13414;44.534;18.700;2023-04-10T11:01:03;9.80;99.90
25512;DHT22;13414;44.534;18.700;2023-04-10T11:03:33;9.70;99.90
25512;DHT22;13414;44.534;18.700;2023-04-10T11:06:01;9.60;99.90
25512;DHT22;13414;44.534;18.700;2023-04-10T11:08:39;9.60;99.90
25512;DHT22;13414;44.534;18.700;2023-04-10T11:11:09;9.60;99.90
25512;DHT22;13414;44.534;18.700;2023-04-10T11:13:39;9.60;99.90
25512;DHT22;13414;44.534;18.700;2023-04-10T11:16:08;9.60;99.90
25512;DHT22;13414;44.534;18.700;2023-04-10T11:19:03;9.60;99.90
25512;DHT22;13414;44.534;18.700;2023-04-10T11:21:31;9.50;99.90
25512;DHT22;13414;44.534;18.700;2023-04-10T11:24:03;9.60;99.90
25512;DHT22;13414;44.534;18.700;2023-04-10T11:26:38;9.60;99.90
25512;DHT22;13414;44.534;18.700;2023-04-10T11:29:32;9.60;99.90
25512;DHT22;13414;44.534;18.700;2023-04-10T11:32:01;9.70;99.90
25512;DHT22;13414;44.534;18.700;2023-04-10T11:34:30;9.70;99.90
25512;DHT22;13414;44.534;18.700;2023-04-10T11:36:59;9.70;99.90
25512;DHT22;13414;44.534;18.700;2023-04-10T11:39:29;9.70;99.90
25512;DHT22;13414;44.534;18.700;2023-04-10T11:41:57;9.70;99.90
25512;DHT22;13414;44.534;18.700;2023-04-10T11:44:29;9.80;99.90
25512;DHT22;13414;44.534;18.700;2023-04-10T11:46:57;9.90;99.90
25512;DHT22;13414;44.534;18.700;2023-04-10T11:49:31;9.90;99.90
25512;DHT22;13414;44.534;18.700;2023-04-10T11:51:59;9.80;99.90
25512;DHT22;13414;44.534;18.700;2023-04-10T11:54:27;9.80;99.90
25512;DHT22;13414;44.534;18.700;2023-04-10T11:56:57;9.90;99.90
25512;DHT22;13414;44.534;18.700;2023-04-10T11:59:25;10.10;99.90
25512;DHT22;13414;44.534;18.700;2023-04-10T12:01:54;10.40;99.90
25512;DHT22;13414;44.534;18.700;2023-04-10T12:04:28;10.30;99.90
25512;DHT22;13414;44.534;18.700;2023-04-10T12:06:57;10.50;99.90
25512;DHT22;13414;44.534;18.700;2023-04-10T12:09:25;10.70;99.90
25512;DHT22;13414;44.534;18.700;2023-04-10T12:11:55;10.70;99.90
25512;DHT22;13414;44.534;18.700;2023-04-10T12:14:29;10.60;99.90
25512;DHT22;13414;44.534;18.700;2023-04-10T12:16:57;10.50;99.90
25512;DHT22;13414;44.534;18.700;2023-04-10T12:19:25;10.70;99.90
25512;DHT22;13414;44.534;18.700;2023-04-10T12:21:53;10.90;99.90
25512;DHT22;13414;44.534;18.700;2023-04-10T12:24:42;10.90;99.90
25512;DHT22;13414;44.534;18.700;2023-04-10T12:27:15;11.00;99.90
25512;DHT22;13414;44.534;18.700;2023-04-10T12:29:43;10.80;99.90
25512;DHT22;13414;44.534;18.700;2023-04-10T12:32:11;10.80;99.90
25512;DHT22;13414;44.534;18.700;2023-04-10T12:34:39;11.10;99.90
25512;DHT22;13414;44.534;18.700;2023-04-10T12:37:07;11.30;99.90
25512;DHT22;13414;44.534;18.700;2023-04-10T12:39:34;11.50;99.90
25512;DHT22;13414;44.534;18.700;2023-04-10T12:42:14;11.60;99.90
25512;DHT22;13414;44.534;18.700;2023-04-10T12:44:52;11.60;99.90
25512;DHT22;13414;44.534;18.700;2023-04-10T12:47:20;11.60;99.90
25512;DHT22;13414;44.534;18.700;2023-04-10T12:50:04;11.50;99.90
25512;DHT22;13414;44.534;18.700;2023-04-10T12:52:32;11.50;99.90
25512;DHT22;13414;44.534;18.700;2023-04-10T12:55:10;11.60;99.90
25512;DHT22;13414;44.534;18.700;2023-04-10T12:57:39;11.40;99.90
25512;DHT22;13414;44.534;18.700;2023-04-10T13:00:08;11.40;99.90
25512;DHT22;13414;44.534;18.700;2023-04-10T13:02:38;11.30;99.90
25512;DHT22;13414;44.534;18.700;2023-04-10T13:05:06;11.10;99.90
25512;DHT22;13414;44.534;18.700;2023-04-10T13:07:34;11.10;99.90
25512;DHT22;13414;44.534;18.700;2023-04-10T13:10:03;11.30;99.90
25512;DHT22;13414;44.534;18.700;2023-04-10T13:12:34;11.60;99.90
25512;DHT22;13414;44.534;18.700;2023-04-10T13:15:05;11.50;99.90
25512;DHT22;13414;44.534;18.700;2023-04-10T13:17:33;11.30;99.90
25512;DHT22;13414;44.534;18.700;2023-04-10T13:20:00;11.40;99.90
25512;DHT22;13414;44.534;18.700;2023-04-10T13:22:28;11.70;99.90
25512;DHT22;13414;44.534;18.700;2023-04-10T13:24:56;12.00;99.90
25512;DHT22;13414;44.534;18.700;2023-04-10T13:27:24;12.10;99.90
25512;DHT22;13414;44.534;18.700;2023-04-10T13:29:51;12.00;99.90
25512;DHT22;13414;44.534;18.700;2023-04-10T13:32:26;12.20;99.90
25512;DHT22;13414;44.534;18.700;2023-04-10T13:34:53;12.40;99.90
25512;DHT22;13414;44.534;18.700;2023-04-10T13:37:22;12.40;99.90
25512;DHT22;13414;44.534;18.700;2023-04-10T13:39:49;12.40;99.90
25512;DHT22;13414;44.534;18.700;2023-04-10T13:42:17;12.30;99.90
25512;DHT22;13414;44.534;18.700;2023-04-10T13:44:46;12.30;99.90
25512;DHT22;13414;44.534;18.700;2023-04-10T13:47:14;12.50;99.90
25512;DHT22;13414;44.534;18.700;2023-04-10T13:49:43;12.50;99.90
25512;DHT22;13414;44.534;18.700;2023-04-10T13:52:11;12.50;99.90
25512;DHT22;13414;44.534;18.700;2023-04-10T13:54:38;12.50;99.90
25512;DHT22;13414;44.534;18.700;2023-04-10T13:57:06;12.60;99.90
25512;DHT22;13414;44.534;18.700;2023-04-10T13:59:33;12.50;99.90
25512;DHT22;13414;44.534;18.700;2023-04-10T14:02:01;12.50;99.90
25512;DHT22;13414;44.534;18.700;2023-04-10T14:04:28;12.60;99.90
25512;DHT22;13414;44.534;18.700;2023-04-10T14:06:57;12.50;99.90
25512;DHT22;13414;44.534;18.700;2023-04-10T14:09:27;12.50;99.90
25512;DHT22;13414;44.534;18.700;2023-04-10T14:11:54;12.60;99.90
25512;DHT22;13414;44.534;18.700;2023-04-10T14:14:22;12.50;99.90
25512;DHT22;13414;44.534;18.700;2023-04-10T14:16:50;12.40;99.90
25512;DHT22;13414;44.534;18.700;2023-04-10T14:19:17;12.50;99.90
25512;DHT22;13414;44.534;18.700;2023-04-10T14:21:45;12.50;99.90
25512;DHT22;13414;44.534;18.700;2023-04-10T14:24:14;12.60;99.90
25512;DHT22;13414;44.534;18.700;2023-04-10T14:26:41;12.70;99.90
25512;DHT22;13414;44.534;18.700;2023-04-10T14:29:09;12.80;99.90
25512;DHT22;13414;44.534;18.700;2023-04-10T14:31:36;12.80;99.90
25512;DHT22;13414;44.534;18.700;2023-04-10T14:34:03;12.90;99.90
25512;DHT22;13414;44.534;18.700;2023-04-10T14:36:31;12.90;99.90
25512;DHT22;13414;44.534;18.700;2023-04-10T14:38:58;12.90;99.90
25512;DHT22;13414;44.534;18.700;2023-04-10T14:41:27;12.90;99.90
25512;DHT22;13414;44.534;18.700;2023-04-10T14:43:54;13.00;99.90
25512;DHT22;13414;44.534;18.700;2023-04-10T14:46:22;13.10;99.90
25512;DHT22;13414;44.534;18.700;2023-04-10T14:48:50;13.30;99.90
25512;DHT22;13414;44.534;18.700;2023-04-10T14:51:17;13.50;99.90
25512;DHT22;13414;44.534;18.700;2023-04-10T14:53:45;13.70;99.90
25512;DHT22;13414;44.534;18.700;2023-04-10T14:56:12;13.70;99.90
25512;DHT22;13414;44.534;18.700;2023-04-10T14:58:42;13.50;99.90
25512;DHT22;13414;44.534;18.700;2023-04-10T15:01:10;13.40;99.90
25512;DHT22;13414;44.534;18.700;2023-04-10T15:03:38;13.30;99.90
25512;DHT22;13414;44.534;18.700;2023-04-10T15:06:06;13.10;99.90
25512;DHT22;13414;44.534;18.700;2023-04-10T15:08:34;13.00;99.90
25512;DHT22;13414;44.534;18.700;2023-04-10T15:11:01;12.80;99.90
25512;DHT22;13414;44.534;18.700;2023-04-10T15:13:30;12.80;99.90
25512;DHT22;13414;44.534;18.700;2023-04-10T15:15:58;13.00;99.90
25512;DHT22;13414;44.534;18.700;2023-04-10T15:18:26;13.10;99.90
25512;DHT22;13414;44.534;18.700;2023-04-10T15:20:53;13.20;99.90
25512;DHT22;13414;44.534;18.700;2023-04-10T15:23:21;13.20;99.90
25512;DHT22;13414;44.534;18.700;2023-04-10T15:25:49;13.30;99.90
25512;DHT22;13414;44.534;18.700;2023-04-10T15:28:16;13.30;99.90
25512;DHT22;13414;44.534;18.700;2023-04-10T15:30:44;13.10;99.90
25512;DHT22;13414;44.534;18.700;2023-04-10T15:33:14;12.80;99.90
25512;DHT22;13414;44.534;18.700;2023-04-10T15:35:47;12.60;99.90
25512;DHT22;13414;44.534;18.700;2023-04-10T15:38:15;12.50;99.90
25512;DHT22;13414;44.534;18.700;2023-04-10T15:40:43;12.50;99.90
25512;DHT22;13414;44.534;18.700;2023-04-10T15:43:10;12.40;99.90
25512;DHT22;13414;44.534;18.700;2023-04-10T15:45:38;12.20;99.90
25512;DHT22;13414;44.534;18.700;2023-04-10T15:48:06;12.10;99.90
25512;DHT22;13414;44.534;18.700;2023-04-10T15:50:35;12.00;99.90
25512;DHT22;13414;44.534;18.700;2023-04-10T15:53:05;11.90;99.90